Date,TemperatureHighF,TemperatureAvgF,TemperatureLowF,DewpointHighF,DewpointAvgF,DewpointLowF,HumidityHigh,HumidityAvg,HumidityLow,PressureMaxIn,PressureMinIn,WindSpeedMaxMPH,WindSpeedAvgMPH,GustSpeedMaxMPH,PrecipitationSumIn
2013-2-1,20,10,1,17,1,-8,85,62,55,30.30,30.06,10,5,17,0.00
2013-2-2,29,21,14,25,16,7,95,79,62,30.06,29.94,12,4,21,0.00
2013-2-3,27,23,17,22,16,11,100,73,55,30.03,29.88,10,4,15,0.00
2013-2-4,35,27,18,25,20,14,87,72,60,29.91,29.71,11,5,17,0.00
2013-2-5,39,30,17,31,25,14,91,82,69,30.00,29.77,10,4,16,0.00
2013-2-6,42,34,23,32,28,21,94,77,61,30.12,29.97,9,3,15,0.00
2013-2-7,37,36,32,37,34,31,100,96,80,29.97,29.80,12,3,19,0.58
2013-2-8,32,28,25,32,24,21,100,85,78,30.27,29.94,13,6,19,0.00
2013-2-9,36,31,26,31,26,23,88,81,69,30.24,29.94,11,5,16,0.00
2013-2-10,49,42,36,49,41,29,100,95,66,29.97,29.44,17,9,27,0.58
2013-2-11,36,32,29,24,22,21,75,66,58,30.03,29.62,12,6,22,0.00
2013-2-12,37,30,26,26,23,22,86,74,58,30.06,29.85,7,3,10,0.00
2013-2-13,44,34,27,31,28,23,90,77,54,29.85,29.68,7,4,13,0.00
2013-2-14,42,37,33,32,30,26,94,74,60,29.94,29.65,9,5,16,0.00
2013-2-15,33,26,20,31,15,12,93,60,44,30.15,29.94,11,4,15,0.00
2013-2-16,28,20,12,12,9,4,70,59,47,30.12,30.03,9,3,14,0.00
2013-2-17,36,25,12,21,12,4,66,57,46,30.09,29.83,12,3,20,0.00
2013-2-18,54,40,23,48,32,18,100,74,55,29.83,29.41,16,9,28,0.41
2013-2-19,23,18,12,19,9,3,81,66,55,30.15,29.68,13,7,19,0.00
2013-2-20,21,14,5,12,5,-4,77,65,53,30.30,30.15,9,3,14,0.00
2013-2-21,29,22,14,26,18,9,100,82,71,30.24,29.80,12,4,18,0.00
2013-2-22,36,29,26,34,26,21,100,89,70,29.91,29.71,11,5,16,0.00
2013-2-23,33,25,20,21,17,15,80,69,56,29.91,29.85,7,3,11,0.00
2013-2-24,38,28,14,25,20,11,87,72,53,30.03,29.91,5,1,7,0.17
2013-2-25,43,34,25,32,28,21,94,77,59,30.03,29.80,10,4,17,0.04
2013-2-26,35,33,31,34,31,26,100,92,72,29.80,29.44,14,7,24,0.00
2013-2-27,34,32,30,32,31,30,100,97,88,29.74,29.53,7,4,10,0.00
2013-2-28,38,33,31,32,31,28,100,92,70,30.00,29.74,10,4,12,0.09